Time;durP1;ratioP1;P1;durP2;ratioP2;P2;SDS_P1;SDS_P2;PMS_P1;PMS_P2;Temp;Humidity;BMP_temperature;BMP_pressure;BME280_temperature;BME280_humidity;BME280_pressure;Samples;Min_cycle;Max_cycle;Signal;HPM_P1;HPM_P2
2023/07/09 00:01:05;;;;;;;4.73;2.00;;;25.80;99.90;;;;;;4872121;29;20213;-87
2023/07/09 00:03:36;;;;;;;3.37;2.10;;;26.00;99.90;;;;;;4873747;29;20335;-87
2023/07/09 00:06:10;;;;;;;4.40;1.83;;;26.20;99.90;;;;;;4877946;29;20273;-86
2023/07/09 00:08:46;;;;;;;2.90;2.00;;;26.10;99.90;;;;;;4878691;29;20212;-86
2023/07/09 00:11:17;;;;;;;3.07;2.00;;;26.00;99.90;;;;;;4875458;29;20209;-86
2023/07/09 00:13:49;;;;;;;5.60;1.97;;;26.30;99.90;;;;;;4878401;29;20282;-86
2023/07/09 00:16:24;;;;;;;2.07;1.80;;;26.00;99.90;;;;;;4878407;29;20211;-88
2023/07/09 00:18:56;;;;;;;3.90;2.10;;;25.70;99.90;;;;;;4882062;29;20206;-87
2023/07/09 00:21:33;;;;;;;3.37;2.07;;;25.90;99.90;;;;;;4882030;29;20202;-85
2023/07/09 00:24:05;;;;;;;3.73;2.00;;;26.00;99.90;;;;;;4876507;29;20214;-85
2023/07/09 00:26:38;;;;;;;4.20;1.90;;;25.70;99.90;;;;;;4875744;29;20575;-84
2023/07/09 00:29:12;;;;;;;3.17;2.00;;;25.80;99.90;;;;;;4873636;29;20208;-84
2023/07/09 00:31:46;;;;;;;2.97;2.07;;;25.60;99.90;;;;;;4876377;29;20317;-85
2023/07/09 00:34:21;;;;;;;3.13;1.80;;;25.30;99.90;;;;;;4882910;29;20249;-86
2023/07/09 00:36:53;;;;;;;3.40;2.00;;;25.50;99.90;;;;;;4875441;29;20222;-85
2023/07/09 00:39:26;;;;;;;4.13;1.80;;;25.70;99.90;;;;;;4872254;29;20211;-84
2023/07/09 00:41:57;;;;;;;3.03;1.90;;;25.80;99.90;;;;;;4867332;29;20219;-85
2023/07/09 00:44:31;;;;;;;4.50;2.07;;;25.90;99.90;;;;;;4893162;29;20221;-86
2023/07/09 00:47:26;;;;;;;3.70;1.77;;;25.80;99.90;;;;;;4886640;29;20230;-85
2023/07/09 00:50:22;;;;;;;2.73;1.90;;;25.70;99.90;;;;;;4875891;29;20601;-86
2023/07/09 00:52:58;;;;;;;2.77;1.70;;;25.90;99.90;;;;;;4875775;29;20215;-86
2023/07/09 00:55:37;;;;;;;5.03;2.03;;;25.90;99.90;;;;;;4876703;29;20222;-86
2023/07/09 00:58:11;;;;;;;2.43;1.77;;;26.00;99.90;;;;;;4878033;29;20206;-87
2023/07/09 01:00:47;;;;;;;3.23;1.83;;;26.20;99.90;;;;;;4876979;29;20219;-86
2023/07/09 01:06:32;;;;;;;3.20;1.90;;;27.00;99.90;;;;;;5088667;28;20891;-87
2023/07/09 01:09:05;;;;;;;2.57;1.47;;;27.40;99.90;;;;;;5088709;28;20340;-87
2023/07/09 01:11:38;;;;;;;2.93;1.70;;;27.70;99.90;;;;;;5084335;28;20203;-87
2023/07/09 01:14:11;;;;;;;2.83;1.73;;;27.80;99.90;;;;;;5087237;28;20207;-87
2023/07/09 01:16:48;;;;;;;4.07;2.10;;;28.20;99.90;;;;;;5072348;28;20257;-87
2023/07/09 01:19:25;;;;;;;3.00;1.90;;;28.10;99.90;;;;;;5076541;28;20207;-85
2023/07/09 01:22:00;;;;;;;5.30;1.80;;;28.40;99.90;;;;;;5073431;28;20206;-85
2023/07/09 01:24:56;;;;;;;2.97;1.80;;;28.00;99.90;;;;;;5078131;28;20230;-85
2023/07/09 01:27:29;;;;;;;3.13;1.80;;;27.50;99.90;;;;;;5083645;28;20210;-85
2023/07/09 01:30:00;;;;;;;3.23;1.80;;;27.90;99.90;;;;;;5068175;28;20583;-86
2023/07/09 01:32:31;;;;;;;5.37;1.80;;;28.10;99.90;;;;;;5085592;28;20225;-85
2023/07/09 01:35:07;;;;;;;2.50;1.60;;;28.40;99.90;;;;;;5103551;28;20256;-85
2023/07/09 01:37:40;;;;;;;2.50;1.60;;;28.30;99.90;;;;;;5081971;28;20207;-85
2023/07/09 01:40:13;;;;;;;2.08;1.58;;;28.40;99.90;;;;;;5087126;28;20226;-84
2023/07/09 01:43:00;;;;;;;2.93;1.80;;;28.10;99.90;;;;;;5080062;28;20207;-84
2023/07/09 01:45:32;;;;;;;2.55;1.83;;;27.70;99.90;;;;;;5085754;28;20230;-84
2023/07/09 01:48:04;;;;;;;4.37;1.80;;;27.90;99.90;;;;;;5084811;28;20282;-85
2023/07/09 01:50:36;;;;;;;1.98;1.70;;;28.00;99.90;;;;;;5083903;28;20207;-86
2023/07/09 01:53:09;;;;;;;5.07;1.67;;;28.10;99.90;;;;;;5076576;28;20207;-85
2023/07/09 01:55:40;;;;;;;3.47;1.80;;;28.20;99.90;;;;;;5088051;28;20203;-86
2023/07/09 01:58:11;;;;;;;3.00;1.63;;;27.50;99.90;;;;;;5081083;28;20723;-94
2023/07/09 02:00:44;;;;;;;3.53;1.60;;;27.40;99.90;;;;;;5075490;28;20219;-87
2023/07/09 02:03:17;;;;;;;2.47;1.87;;;27.90;99.90;;;;;;5081415;28;20272;-85
2023/07/09 02:05:51;;;;;;;3.47;1.70;;;27.90;99.90;;;;;;5082743;28;20327;-87
2023/07/09 02:08:24;;;;;;;4.73;1.70;;;27.50;99.90;;;;;;5081730;28;20206;-84
2023/07/09 02:10:55;;;;;;;3.70;1.70;;;27.10;99.90;;;;;;5072190;28;20199;-85
2023/07/09 02:13:26;;;;;;;2.80;1.50;;;26.30;99.90;;;;;;5081295;28;20203;-85
2023/07/09 02:15:57;;;;;;;3.23;1.80;;;25.80;99.90;;;;;;5077570;28;20211;-92
2023/07/09 02:21:13;;;;;;;3.67;1.80;;;25.20;99.90;;;;;;5054548;23;10002104;-96
2023/07/09 02:50:44;;;;;;;1.97;1.60;;;23.30;99.90;;;;;;4998711;28;20222;-92
2023/07/09 02:53:16;;;;;;;4.23;1.87;;;23.20;99.90;;;;;;5001029;28;20269;-94
2023/07/09 02:55:52;;;;;;;2.37;1.80;;;23.10;99.90;;;;;;5007461;28;20198;-94
2023/07/09 02:58:47;;;;;;;5.63;1.70;;;23.00;99.90;;;;;;4995378;28;20761;-92
2023/07/09 03:01:20;;;;;;;4.57;1.67;;;22.90;99.90;;;;;;5010570;28;20202;-91
2023/07/09 03:03:52;;;;;;;2.97;1.77;;;22.70;99.90;;;;;;4989531;28;21012;-92
2023/07/09 03:06:29;;;;;;;4.50;1.80;;;22.70;99.90;;;;;;5009813;28;20254;-92
2023/07/09 03:09:02;;;;;;;5.63;1.90;;;22.50;99.90;;;;;;4998890;28;20236;-90
2023/07/09 03:11:36;;;;;;;4.07;1.63;;;22.40;99.90;;;;;;4996333;28;20207;-90
2023/07/09 03:14:10;;;;;;;3.60;1.83;;;22.30;99.90;;;;;;5006554;28;20207;-90
2023/07/09 03:16:41;;;;;;;3.53;1.50;;;22.30;99.90;;;;;;5009881;28;20212;-91
2023/07/09 03:19:17;;;;;;;2.63;1.83;;;22.20;99.90;;;;;;5000445;28;20713;-90
2023/07/09 03:21:54;;;;;;;2.50;1.73;;;22.10;99.90;;;;;;4993972;28;20213;-91
2023/07/09 03:24:26;;;;;;;2.70;1.90;;;22.00;99.90;;;;;;4971351;28;20206;-91
2023/07/09 03:27:01;;;;;;;4.63;1.83;;;21.90;99.90;;;;;;4981688;28;20238;-89
2023/07/09 03:32:29;;;;;;;2.60;1.50;;;21.60;99.90;;;;;;5005679;28;20234;-89
2023/07/09 03:35:04;;;;;;;4.40;2.20;;;21.50;99.90;;;;;;5002781;28;20286;-90
2023/07/09 03:37:38;;;;;;;6.10;2.20;;;21.40;99.90;;;;;;5001626;28;20195;-84
2023/07/09 03:40:13;;;;;;;9.33;4.93;;;21.40;99.90;;;;;;4998284;28;20224;-85
2023/07/09 03:42:45;;;;;;;10.10;3.20;;;21.20;99.90;;;;;;4988797;28;20203;-84
2023/07/09 03:45:18;;;;;;;4.60;2.00;;;21.00;99.90;;;;;;4997916;28;20242;-93
2023/07/09 03:47:56;;;;;;;5.70;2.10;;;20.90;99.90;;;;;;4992193;28;20658;-92
2023/07/09 03:50:31;;;;;;;3.07;1.87;;;20.80;99.90;;;;;;4975863;28;20217;-87
2023/07/09 03:53:05;;;;;;;6.73;1.90;;;20.70;99.90;;;;;;4985156;28;20678;-84
2023/07/09 03:55:37;;;;;;;4.17;2.20;;;20.60;99.90;;;;;;4990109;28;20313;-87
2023/07/09 03:58:08;;;;;;;3.90;1.80;;;20.50;99.90;;;;;;4985487;28;20218;-85
2023/07/09 04:00:40;;;;;;;3.20;1.60;;;20.50;99.90;;;;;;4995585;28;20238;-90
2023/07/09 04:03:12;;;;;;;6.43;2.17;;;20.40;99.90;;;;;;4975013;28;20206;-89
2023/07/09 04:05:43;;;;;;;3.23;1.90;;;20.30;99.90;;;;;;4988863;28;20240;-88
2023/07/09 04:08:17;;;;;;;4.73;2.00;;;20.30;99.90;;;;;;4993983;28;20210;-89
2023/07/09 04:10:48;;;;;;;14.97;3.50;;;20.30;99.90;;;;;;4994515;28;20219;-90
2023/07/09 04:13:20;;;;;;;8.57;2.23;;;20.20;99.90;;;;;;4983597;28;20497;-90
2023/07/09 04:15:51;;;;;;;3.40;1.70;;;20.10;99.90;;;;;;4979852;28;20207;-93
2023/07/09 04:18:23;;;;;;;3.93;1.90;;;20.00;99.90;;;;;;4994239;28;20667;-95
2023/07/09 04:20:54;;;;;;;3.17;2.00;;;20.00;99.90;;;;;;4989483;28;20246;-89
2023/07/09 04:23:31;;;;;;;3.17;2.40;;;19.90;99.90;;;;;;4994238;28;20206;-92
2023/07/09 04:26:08;;;;;;;2.20;2.00;;;19.80;99.90;;;;;;4990660;28;20260;-91
2023/07/09 04:28:43;;;;;;;4.40;2.20;;;19.80;99.90;;;;;;5009828;28;20467;-94
2023/07/09 04:31:20;;;;;;;3.23;2.17;;;19.70;99.90;;;;;;5016530;28;20277;-91
2023/07/09 04:33:52;;;;;;;5.40;2.00;;;19.60;99.90;;;;;;5014759;28;20219;-88
2023/07/09 04:36:24;;;;;;;2.77;2.00;;;19.60;99.90;;;;;;5014599;28;20198;-88
2023/07/09 04:38:59;;;;;;;3.53;1.73;;;19.50;99.90;;;;;;5012555;28;20203;-89
2023/07/09 04:41:33;;;;;;;3.60;2.00;;;19.50;99.90;;;;;;4996161;28;20201;-89
2023/07/09 04:44:05;;;;;;;3.40;2.00;;;19.40;99.90;;;;;;4991339;28;20191;-90
2023/07/09 04:46:37;;;;;;;2.37;1.83;;;19.30;99.90;;;;;;4990936;28;20296;-89
2023/07/09 04:49:09;;;;;;;3.17;2.13;;;19.30;99.90;;;;;;5007356;28;20220;-88
2023/07/09 04:51:40;;;;;;;2.77;1.80;;;19.30;99.90;;;;;;4990921;28;20210;-86
2023/07/09 04:54:13;;;;;;;3.57;1.73;;;19.30;99.90;;;;;;4968941;28;20229;-88
2023/07/09 04:56:46;;;;;;;3.67;2.10;;;19.20;99.90;;;;;;4972772;28;20201;-87
2023/07/09 04:59:17;;;;;;;3.47;2.23;;;19.20;99.90;;;;;;4992874;28;20284;-89
2023/07/09 05:01:48;;;;;;;4.70;2.00;;;19.10;99.90;;;;;;4981207;28;20309;-88
2023/07/09 05:04:21;;;;;;;4.03;2.30;;;19.10;99.90;;;;;;4995131;28;20212;-89
2023/07/09 05:06:56;;;;;;;2.87;2.20;;;19.00;99.90;;;;;;4995536;28;20283;-91
2023/07/09 05:09:38;;;;;;;4.10;1.83;;;19.00;99.90;;;;;;5000001;28;20202;-91
2023/07/09 05:12:15;;;;;;;4.03;2.20;;;18.90;99.90;;;;;;5005336;28;20216;-91
2023/07/09 05:14:47;;;;;;;4.53;2.00;;;18.90;99.90;;;;;;5003760;28;20206;-91
2023/07/09 05:17:24;;;;;;;4.07;2.03;;;18.80;99.90;;;;;;4991150;28;20210;-92
2023/07/09 05:19:57;;;;;;;4.80;2.20;;;18.80;99.90;;;;;;5004375;28;20202;-89
2023/07/09 05:22:31;;;;;;;2.73;2.03;;;18.70;99.90;;;;;;5000021;28;20249;-90
2023/07/09 05:25:08;;;;;;;4.80;2.67;;;18.60;99.90;;;;;;4998876;28;20233;-90
2023/07/09 05:27:40;;;;;;;4.20;2.33;;;18.60;99.90;;;;;;5006810;28;20236;-90
2023/07/09 05:30:13;;;;;;;6.27;2.07;;;18.60;99.90;;;;;;4980063;28;20679;-91
2023/07/09 05:32:45;;;;;;;3.87;2.10;;;18.50;99.90;;;;;;5003101;28;20234;-90
2023/07/09 05:35:30;;;;;;;6.73;2.17;;;18.40;99.90;;;;;;4995716;28;20202;-91
2023/07/09 05:38:02;;;;;;;5.47;2.43;;;18.30;99.90;;;;;;4983181;28;20210;-92
2023/07/09 05:40:36;;;;;;;3.67;2.60;;;18.30;99.90;;;;;;4989996;28;20246;-91
2023/07/09 05:43:07;;;;;;;3.57;2.17;;;18.20;99.90;;;;;;4989111;28;20238;-91
2023/07/09 05:45:40;;;;;;;3.37;2.40;;;18.20;99.90;;;;;;4983524;28;20207;-91
2023/07/09 05:48:13;;;;;;;4.87;2.40;;;18.20;99.90;;;;;;4991851;28;20245;-90
2023/07/09 05:50:46;;;;;;;5.00;2.00;;;18.10;99.90;;;;;;4976327;28;20214;-91
2023/07/09 05:53:17;;;;;;;2.10;1.90;;;18.10;99.90;;;;;;4992223;28;20215;-90
2023/07/09 05:55:51;;;;;;;3.10;2.50;;;18.00;99.90;;;;;;4995237;28;20297;-94
2023/07/09 05:58:23;;;;;;;4.77;2.60;;;17.90;99.90;;;;;;4997399;28;20215;-91
2023/07/09 06:00:57;;;;;;;4.17;2.20;;;18.20;99.90;;;;;;4988403;28;20199;-91
2023/07/09 06:03:31;;;;;;;4.40;2.53;;;18.10;99.90;;;;;;4985121;28;20201;-92
2023/07/09 06:06:02;;;;;;;2.53;2.33;;;18.00;99.90;;;;;;4996233;28;20210;-91
2023/07/09 06:08:35;;;;;;;3.13;2.70;;;17.80;99.90;;;;;;4997192;28;20214;-91
2023/07/09 06:11:11;;;;;;;3.13;2.40;;;17.80;99.90;;;;;;4994260;28;20559;-91
2023/07/09 06:13:43;;;;;;;3.37;2.50;;;17.70;99.90;;;;;;4996949;28;20206;-90
2023/07/09 06:16:15;;;;;;;3.13;2.40;;;17.60;99.90;;;;;;4993310;28;20222;-92
2023/07/09 06:18:47;;;;;;;4.37;2.50;;;17.60;99.90;;;;;;4990543;28;20257;-91
2023/07/09 06:21:18;;;;;;;3.60;2.43;;;17.60;99.90;;;;;;5000184;28;20310;-89
2023/07/09 06:23:50;;;;;;;4.53;2.70;;;17.50;99.90;;;;;;4974176;28;20234;-90
2023/07/09 06:26:24;;;;;;;5.17;2.80;;;17.40;99.90;;;;;;4991735;28;20225;-91
2023/07/09 06:28:55;;;;;;;3.77;2.47;;;17.30;99.90;;;;;;4991582;28;20206;-91
2023/07/09 06:31:27;;;;;;;3.30;2.63;;;17.30;99.90;;;;;;4995062;28;20207;-90
2023/07/09 06:34:00;;;;;;;4.17;2.40;;;17.30;99.90;;;;;;4969356;28;20241;-91
2023/07/09 06:36:31;;;;;;;4.57;2.60;;;17.20;99.90;;;;;;4992153;28;20226;-91
2023/07/09 06:39:03;;;;;;;3.30;2.60;;;17.20;99.90;;;;;;4989730;28;20681;-91
2023/07/09 06:41:38;;;;;;;3.73;2.57;;;17.10;99.90;;;;;;4996539;28;20206;-90
2023/07/09 06:44:13;;;;;;;3.20;2.60;;;17.00;99.90;;;;;;4998393;28;20214;-92
2023/07/09 06:46:47;;;;;;;3.47;2.57;;;17.00;99.90;;;;;;5015815;28;20230;-91
2023/07/09 06:49:19;;;;;;;5.23;2.40;;;17.00;99.90;;;;;;5013459;28;20215;-90
2023/07/09 06:51:51;;;;;;;3.23;2.30;;;16.90;99.90;;;;;;5003243;28;20622;-92
2023/07/09 06:54:22;;;;;;;3.97;2.90;;;16.90;99.90;;;;;;4996017;28;20217;-91
2023/07/09 06:56:55;;;;;;;6.00;2.60;;;16.90;99.90;;;;;;4994706;28;20825;-91
2023/07/09 06:59:27;;;;;;;3.43;2.40;;;16.80;99.90;;;;;;4989869;28;20210;-92
2023/07/09 07:01:59;;;;;;;7.10;2.53;;;16.80;99.90;;;;;;4995164;28;20304;-91
2023/07/09 07:04:31;;;;;;;4.97;2.70;;;16.70;99.90;;;;;;4995471;28;20302;-92
2023/07/09 07:07:03;;;;;;;3.67;2.30;;;16.70;99.90;;;;;;4998520;28;20226;-92
2023/07/09 07:09:38;;;;;;;4.07;2.60;;;16.70;99.90;;;;;;4988429;28;20221;-92
2023/07/09 07:12:21;;;;;;;3.80;2.43;;;16.60;99.90;;;;;;4995342;28;20604;-91
2023/07/09 07:14:54;;;;;;;7.43;3.10;;;16.60;99.90;;;;;;4995136;28;20195;-92
2023/07/09 07:17:26;;;;;;;4.53;2.83;;;16.60;99.90;;;;;;4991594;28;20295;-91
2023/07/09 07:19:58;;;;;;;4.70;2.80;;;16.50;99.90;;;;;;4993455;28;20217;-92
2023/07/09 07:22:30;;;;;;;4.40;2.90;;;16.40;99.90;;;;;;4995096;28;20779;-92
2023/07/09 07:25:02;;;;;;;5.27;3.07;;;16.40;99.90;;;;;;4995493;28;20218;-93
2023/07/09 07:27:37;;;;;;;4.77;2.90;;;16.40;99.90;;;;;;4996373;28;20233;-94
2023/07/09 07:30:10;;;;;;;4.43;2.57;;;16.30;99.90;;;;;;4997057;28;20662;-92
2023/07/09 07:32:48;;;;;;;4.53;3.07;;;16.20;99.90;;;;;;4978751;28;20198;-93
2023/07/09 07:35:20;;;;;;;5.70;2.47;;;16.30;99.90;;;;;;4993665;28;20313;-93
2023/07/09 07:37:52;;;;;;;3.43;2.63;;;16.20;99.90;;;;;;4976986;28;20238;-92
2023/07/09 07:40:23;;;;;;;5.37;2.87;;;16.10;99.90;;;;;;4976923;28;20199;-93
2023/07/09 07:42:57;;;;;;;8.03;2.50;;;16.10;99.90;;;;;;4977845;28;20218;-93
2023/07/09 07:45:28;;;;;;;4.70;2.77;;;16.00;99.90;;;;;;4980988;28;20349;-93
2023/07/09 07:48:01;;;;;;;5.03;3.10;;;16.00;99.90;;;;;;4985251;28;21046;-91
2023/07/09 07:50:34;;;;;;;5.97;2.40;;;15.90;99.90;;;;;;4982924;28;20285;-92
2023/07/09 07:53:07;;;;;;;6.20;3.17;;;16.00;99.90;;;;;;4991000;28;20212;-93
2023/07/09 07:55:39;;;;;;;3.43;2.50;;;16.00;99.90;;;;;;4995818;28;20190;-92
2023/07/09 07:58:14;;;;;;;5.23;2.70;;;15.90;99.90;;;;;;4995043;28;20273;-93
2023/07/09 08:00:46;;;;;;;8.23;2.97;;;15.80;99.90;;;;;;4994426;28;20198;-93
2023/07/09 08:03:17;;;;;;;6.43;3.30;;;15.80;99.90;;;;;;4994775;28;20202;-92
2023/07/09 08:05:51;;;;;;;4.47;2.43;;;15.70;99.90;;;;;;4979904;28;20206;-92
2023/07/09 08:08:23;;;;;;;5.07;2.70;;;15.60;99.90;;;;;;4995061;28;20304;-91
2023/07/09 08:11:04;;;;;;;6.80;2.90;;;15.60;99.90;;;;;;4993912;28;20302;-93
2023/07/09 08:13:41;;;;;;;3.87;2.30;;;15.50;99.90;;;;;;4994736;28;20206;-91
2023/07/09 08:16:13;;;;;;;6.30;3.53;;;15.50;99.90;;;;;;4993671;28;20309;-93
2023/07/09 08:18:49;;;;;;;5.80;3.00;;;15.40;99.90;;;;;;4995085;28;20252;-92
2023/07/09 08:21:21;;;;;;;6.47;3.03;;;15.40;99.90;;;;;;4977251;28;20198;-92
2023/07/09 08:23:54;;;;;;;5.53;3.03;;;15.40;99.90;;;;;;4977931;28;20225;-92
2023/07/09 08:26:25;;;;;;;5.77;3.00;;;15.40;99.90;;;;;;4977906;28;20206;-92
2023/07/09 08:28:59;;;;;;;4.13;2.50;;;15.40;99.90;;;;;;4983923;28;20213;-93
2023/07/09 08:31:30;;;;;;;4.17;2.90;;;15.30;99.90;;;;;;4993909;28;20677;-92
2023/07/09 08:34:02;;;;;;;6.57;3.40;;;15.30;99.90;;;;;;4994623;28;20206;-93
2023/07/09 08:36:34;;;;;;;5.03;3.03;;;15.20;99.90;;;;;;4993687;28;20210;-91
2023/07/09 08:39:06;;;;;;;4.20;2.90;;;15.20;99.90;;;;;;4980537;28;20426;-92
2023/07/09 08:41:45;;;;;;;4.67;2.80;;;15.20;99.90;;;;;;4992718;28;20655;-94
2023/07/09 08:44:51;;;;;;;5.57;3.00;;;15.20;99.90;;;;;;4976448;28;20215;-93
2023/07/09 08:47:34;;;;;;;6.13;3.30;;;15.10;99.90;;;;;;4966804;28;20211;-90
2023/07/09 08:50:12;;;;;;;6.60;3.07;;;15.00;99.90;;;;;;4987190;28;20214;-91
2023/07/09 08:52:45;;;;;;;7.93;2.90;;;15.00;99.90;;;;;;4976589;28;20297;-92
2023/07/09 08:55:22;;;;;;;10.93;3.37;;;14.90;99.90;;;;;;5003441;28;20210;-92
2023/07/09 08:57:59;;;;;;;7.37;3.27;;;14.80;99.90;;;;;;4991441;28;20293;-93
2023/07/09 09:00:33;;;;;;;6.07;3.00;;;14.70;99.90;;;;;;4988285;28;20203;-93
2023/07/09 09:03:12;;;;;;;7.37;2.93;;;14.70;99.90;;;;;;4992275;28;20290;-93
2023/07/09 09:05:47;;;;;;;5.27;2.77;;;14.70;99.90;;;;;;4979883;28;20210;-90
2023/07/09 09:08:41;;;;;;;5.77;3.00;;;14.80;99.90;;;;;;4980373;28;20854;-91
2023/07/09 09:11:21;;;;;;;8.87;3.40;;;14.80;99.90;;;;;;4992256;28;20214;-92
2023/07/09 09:13:56;;;;;;;3.53;2.80;;;14.70;99.90;;;;;;4995943;28;20195;-91
2023/07/09 09:16:32;;;;;;;5.07;2.97;;;14.70;99.90;;;;;;4993688;28;20206;-91
2023/07/09 09:19:18;;;;;;;5.60;3.07;;;14.70;99.90;;;;;;4993995;28;20257;-90
2023/07/09 09:21:50;;;;;;;4.97;3.20;;;14.70;99.90;;;;;;4982507;28;20221;-93
2023/07/09 09:24:28;;;;;;;4.80;2.90;;;14.60;99.90;;;;;;4982275;28;20762;-92
2023/07/09 09:27:01;;;;;;;9.50;3.10;;;14.50;99.90;;;;;;4992429;28;20218;-91
2023/07/09 09:29:33;;;;;;;4.97;2.97;;;14.50;99.90;;;;;;4998665;28;20210;-92
2023/07/09 09:32:23;;;;;;;5.20;2.90;;;14.40;99.90;;;;;;4997268;28;20219;-92
2023/07/09 09:34:58;;;;;;;8.47;3.23;;;14.40;99.90;;;;;;4994657;28;20230;-93
2023/07/09 09:37:32;;;;;;;4.63;3.07;;;14.40;99.90;;;;;;4990375;28;20202;-93
2023/07/09 09:40:11;;;;;;;5.97;3.23;;;14.30;99.90;;;;;;4998749;28;20320;-93
2023/07/09 09:42:47;;;;;;;5.50;3.10;;;14.30;99.90;;;;;;4976259;28;20214;-94
2023/07/09 09:45:21;;;;;;;5.83;2.90;;;14.30;99.90;;;;;;5000653;28;20206;-94
2023/07/09 09:47:54;;;;;;;5.53;3.07;;;14.00;99.90;;;;;;5012203;28;20257;-92
2023/07/09 09:50:32;;;;;;;7.73;3.67;;;14.10;99.90;;;;;;4995213;28;20245;-92
2023/07/09 09:53:04;;;;;;;6.40;3.23;;;14.00;99.90;;;;;;5001574;28;20270;-92
2023/07/09 09:55:36;;;;;;;4.47;3.33;;;13.90;99.90;;;;;;5003523;28;20218;-94
2023/07/09 09:58:16;;;;;;;5.20;3.47;;;13.90;99.90;;;;;;4970983;28;20246;-92
2023/07/09 10:00:52;;;;;;;5.83;3.23;;;13.90;99.90;;;;;;5005276;28;20194;-95
2023/07/09 10:03:24;;;;;;;3.63;2.90;;;13.80;99.90;;;;;;5002837;28;20201;-93
2023/07/09 10:06:00;;;;;;;7.80;3.13;;;13.80;99.90;;;;;;5016798;28;20213;-94
2023/07/09 10:08:44;;;;;;;5.93;3.00;;;13.80;99.90;;;;;;5018910;28;20273;-95
2023/07/09 10:11:26;;;;;;;6.27;3.30;;;13.90;99.90;;;;;;5015507;28;20306;-92
2023/07/09 10:14:03;;;;;;;5.97;3.20;;;13.80;99.90;;;;;;5005852;28;20203;-93
2023/07/09 10:16:40;;;;;;;7.90;3.10;;;13.90;99.90;;;;;;5000906;28;20293;-92
2023/07/09 10:19:23;;;;;;;5.43;3.57;;;13.80;99.90;;;;;;4998054;28;20630;-92
2023/07/09 10:22:02;;;;;;;6.03;3.60;;;13.80;99.90;;;;;;4995854;28;20302;-92
2023/07/09 10:24:49;;;;;;;6.27;2.93;;;13.80;99.90;;;;;;4997124;28;20552;-92
2023/07/09 10:27:27;;;;;;;6.57;3.47;;;13.70;99.90;;;;;;4990130;28;20217;-92
2023/07/09 10:30:16;;;;;;;6.80;3.10;;;13.70;99.90;;;;;;4989338;28;20217;-92
2023/07/09 10:33:04;;;;;;;10.47;4.17;;;13.60;99.90;;;;;;4991496;28;20202;-92
2023/07/09 10:35:40;;;;;;;5.30;3.20;;;13.60;99.90;;;;;;5002843;28;20218;-92
2023/07/09 10:38:43;;;;;;;7.33;3.57;;;13.60;99.90;;;;;;4997466;28;20292;-93
2023/07/09 10:41:18;;;;;;;5.83;3.40;;;13.60;99.90;;;;;;4987242;28;20214;-94
2023/07/09 10:44:05;;;;;;;6.83;3.20;;;13.60;99.90;;;;;;5000291;28;20198;-93
2023/07/09 10:46:40;;;;;;;7.83;3.20;;;13.50;99.90;;;;;;4986903;28;20642;-93
2023/07/09 10:49:15;;;;;;;7.63;3.67;;;13.40;99.90;;;;;;4985384;28;20539;-93
2023/07/09 10:51:54;;;;;;;5.47;3.23;;;13.40;99.90;;;;;;4995356;28;20194;-94
2023/07/09 10:54:34;;;;;;;8.27;3.27;;;13.40;99.90;;;;;;4998768;28;20217;-92
2023/07/09 10:57:12;;;;;;;6.40;3.50;;;13.40;99.90;;;;;;4991517;28;20571;-92
2023/07/09 10:59:45;;;;;;;9.10;3.57;;;13.30;99.90;;;;;;4974746;28;20265;-92
2023/07/09 11:02:23;;;;;;;5.83;3.40;;;13.30;99.90;;;;;;4990002;28;20246;-92
2023/07/09 11:04:57;;;;;;;6.97;3.57;;;13.20;99.90;;;;;;4999430;28;20190;-93
2023/07/09 11:07:32;;;;;;;7.27;3.77;;;13.20;99.90;;;;;;5004728;28;20254;-93
2023/07/09 11:10:25;;;;;;;6.47;3.83;;;13.20;99.90;;;;;;5009351;28;20214;-93
2023/07/09 11:13:03;;;;;;;7.13;3.70;;;13.10;99.90;;;;;;4995421;28;20210;-92
2023/07/09 11:15:39;;;;;;;7.93;3.73;;;13.10;99.90;;;;;;4972925;28;20211;-91
2023/07/09 11:18:18;;;;;;;5.63;3.57;;;13.20;99.90;;;;;;4991397;28;20285;-91
2023/07/09 11:21:00;;;;;;;6.70;3.33;;;13.20;99.90;;;;;;4977894;28;20326;-93
2023/07/09 11:23:46;;;;;;;7.27;3.47;;;13.10;99.90;;;;;;4979194;28;20675;-92
2023/07/09 11:26:27;;;;;;;6.23;3.43;;;13.20;99.90;;;;;;4993328;28;20198;-91
2023/07/09 11:29:16;;;;;;;6.03;3.70;;;13.10;99.90;;;;;;4995898;28;20209;-91
2023/07/09 11:31:49;;;;;;;7.17;4.03;;;13.10;99.90;;;;;;4976190;28;20218;-91
2023/07/09 11:34:22;;;;;;;7.50;3.67;;;13.10;99.90;;;;;;4991882;28;20213;-92
2023/07/09 11:37:00;;;;;;;9.00;3.43;;;13.10;99.90;;;;;;4995142;28;20245;-93
2023/07/09 11:39:44;;;;;;;11.63;3.40;;;13.10;99.90;;;;;;4994708;28;20261;-93
2023/07/09 11:42:33;;;;;;;7.03;3.80;;;13.10;99.90;;;;;;4983281;28;20214;-92
2023/07/09 11:45:12;;;;;;;5.60;3.30;;;13.10;99.90;;;;;;4988275;28;20206;-94
2023/07/09 11:47:48;;;;;;;7.50;3.80;;;13.10;99.90;;;;;;4979409;28;20646;-93
2023/07/09 11:50:26;;;;;;;5.23;3.23;;;13.10;99.90;;;;;;4976318;28;20206;-93
2023/07/09 11:53:01;;;;;;;7.77;3.67;;;13.10;99.90;;;;;;4993998;28;20232;-93
2023/07/09 11:55:40;;;;;;;9.00;3.57;;;13.00;99.90;;;;;;4995344;28;20202;-93
2023/07/09 11:58:15;;;;;;;6.50;3.70;;;13.00;99.90;;;;;;4995235;28;20210;-93
2023/07/09 12:00:49;;;;;;;10.60;4.17;;;13.00;99.90;;;;;;4980350;28;20244;-92
2023/07/09 12:03:25;;;;;;;8.13;3.63;;;12.90;99.90;;;;;;4969020;28;20524;-92
2023/07/09 12:05:58;;;;;;;5.43;3.73;;;12.90;99.90;;;;;;4996221;28;20206;-91
2023/07/09 12:08:35;;;;;;;7.20;3.40;;;12.90;99.90;;;;;;4979349;28;20206;-93
2023/07/09 12:11:07;;;;;;;6.87;3.40;;;12.90;99.90;;;;;;4994318;28;20964;-93
2023/07/09 12:13:44;;;;;;;9.40;4.07;;;12.90;99.90;;;;;;4995145;28;20210;-92
2023/07/09 12:16:25;;;;;;;5.93;3.30;;;12.90;99.90;;;;;;4997585;28;20206;-92
2023/07/09 12:18:57;;;;;;;7.90;3.90;;;12.90;99.90;;;;;;4994559;28;20213;-92
2023/07/09 12:21:30;;;;;;;5.77;3.20;;;12.90;99.90;;;;;;4984609;28;20234;-91
2023/07/09 12:24:02;;;;;;;5.10;3.40;;;12.90;99.90;;;;;;4978095;28;20737;-91
2023/07/09 12:26:34;;;;;;;8.60;3.70;;;12.80;99.90;;;;;;4988682;28;20206;-94
2023/07/09 12:29:13;;;;;;;6.97;3.30;;;12.80;99.90;;;;;;4977912;28;20211;-93
2023/07/09 12:31:44;;;;;;;6.77;3.30;;;12.80;99.90;;;;;;4982186;28;20214;-92
2023/07/09 12:34:16;;;;;;;8.57;3.30;;;12.80;99.90;;;;;;4993845;28;20285;-91
2023/07/09 12:36:52;;;;;;;8.50;3.37;;;12.80;99.90;;;;;;4994758;28;20230;-92
2023/07/09 12:39:28;;;;;;;8.60;3.30;;;12.80;99.90;;;;;;4986361;28;20618;-93
2023/07/09 12:42:03;;;;;;;8.47;3.77;;;12.80;99.90;;;;;;4985953;28;20216;-93
2023/07/09 12:44:39;;;;;;;8.73;3.60;;;12.80;99.90;;;;;;4986084;28;20586;-93
2023/07/09 12:47:16;;;;;;;5.80;3.13;;;12.70;99.90;;;;;;4990657;28;20198;-93
2023/07/09 12:49:51;;;;;;;7.23;3.27;;;12.70;99.90;;;;;;4987374;28;20641;-92
2023/07/09 12:52:25;;;;;;;9.30;3.60;;;12.80;99.90;;;;;;4993143;28;20202;-94
2023/07/09 12:55:00;;;;;;;12.00;3.70;;;12.80;99.90;;;;;;4985272;28;20217;-94
2023/07/09 12:57:33;;;;;;;6.47;3.33;;;12.80;99.90;;;;;;4994690;28;20202;-94
2023/07/09 13:00:20;;;;;;;6.77;3.43;;;12.80;99.90;;;;;;4970590;28;20297;-94
2023/07/09 13:02:57;;;;;;;5.97;3.30;;;12.80;99.90;;;;;;5006622;28;20240;-92
2023/07/09 13:05:29;;;;;;;5.87;3.70;;;12.70;99.90;;;;;;4994601;28;20235;-93
2023/07/09 13:08:02;;;;;;;7.60;3.73;;;12.70;99.90;;;;;;4998189;28;20230;-93
2023/07/09 13:10:40;;;;;;;6.47;3.40;;;12.70;99.90;;;;;;5002921;28;20293;-93
2023/07/09 13:13:16;;;;;;;8.33;3.53;;;12.70;99.90;;;;;;4996343;28;20220;-93
2023/07/09 13:15:56;;;;;;;7.70;3.37;;;12.70;99.90;;;;;;4979504;28;20208;-93
2023/07/09 13:18:28;;;;;;;7.80;3.80;;;12.80;99.90;;;;;;5008331;28;20259;-92
2023/07/09 13:21:03;;;;;;;7.30;3.57;;;12.80;99.90;;;;;;5005660;28;20251;-94
2023/07/09 13:23:36;;;;;;;7.63;3.47;;;12.80;99.90;;;;;;4984338;28;20662;-93
2023/07/09 13:26:10;;;;;;;8.47;3.50;;;12.80;99.90;;;;;;4996570;28;20214;-92
2023/07/09 13:28:42;;;;;;;8.70;3.90;;;12.80;99.90;;;;;;4999179;28;20228;-93
2023/07/09 13:31:18;;;;;;;8.23;3.93;;;12.80;99.90;;;;;;4993745;28;20206;-93
2023/07/09 13:33:54;;;;;;;8.40;3.67;;;12.80;99.90;;;;;;4984245;28;20274;-93
2023/07/09 13:36:25;;;;;;;7.90;3.40;;;12.90;99.90;;;;;;4990497;28;20216;-92
2023/07/09 13:39:00;;;;;;;8.33;3.83;;;13.00;99.90;;;;;;4982353;28;20285;-92
2023/07/09 13:41:32;;;;;;;5.03;3.40;;;13.00;99.90;;;;;;4979934;28;20741;-92
2023/07/09 13:44:03;;;;;;;5.03;3.20;;;13.00;99.90;;;;;;4972161;28;20210;-93
2023/07/09 13:46:39;;;;;;;8.53;3.60;;;13.10;99.90;;;;;;4993150;28;20210;-94
2023/07/09 13:49:19;;;;;;;8.57;3.37;;;13.10;99.90;;;;;;4997959;28;20227;-93
2023/07/09 13:51:55;;;;;;;5.20;2.53;;;13.10;99.90;;;;;;4990443;28;20242;-92
2023/07/09 13:54:35;;;;;;;10.27;3.60;;;13.20;99.90;;;;;;4997725;28;20206;-92
2023/07/09 13:57:09;;;;;;;9.60;3.67;;;13.20;99.90;;;;;;4988902;28;20225;-93
2023/07/09 13:59:41;;;;;;;6.83;3.10;;;13.30;99.90;;;;;;4995511;28;20206;-93
2023/07/09 14:02:26;;;;;;;7.77;3.40;;;13.40;99.90;;;;;;4986801;28;20349;-94